Time;durP1;ratioP1;P1;durP2;ratioP2;P2;SDS_P1;SDS_P2;PMS_P1;PMS_P2;Temp;Humidity;BMP_temperature;BMP_pressure;BME280_temperature;BME280_humidity;BME280_pressure;Samples;Min_cycle;Max_cycle;Signal;HPM_P1;HPM_P2
2021/12/20 00:01:44;;;;;;;22.63;7.30;;;;;;;;;;5052610;28;20025;-67
2021/12/20 00:04:10;;;;;;;24.27;9.52;;;;;;;;;;5070754;28;20028;-67
2021/12/20 00:06:35;;;;;;;26.10;8.52;;;;;;;;;;5070998;28;20377;-66
2021/12/20 00:09:02;;;;;;;23.17;7.43;;;;;;;;;;5071055;28;20017;-68
2021/12/20 00:11:28;;;;;;;32.88;9.48;;;;;;;;;;5052983;28;20090;-67
2021/12/20 00:13:54;;;;;;;21.33;6.90;;;;;;;;;;5052507;28;20028;-68
2021/12/20 00:16:20;;;;;;;26.38;7.57;;;;;;;;;;5052467;28;20040;-67
2021/12/20 00:18:46;;;;;;;23.50;7.85;;;;;;;;;;5070738;28;20028;-67
2021/12/20 00:21:12;;;;;;;26.23;8.00;;;;;;;;;;5052694;28;20025;-68
2021/12/20 00:23:38;;;;;;;21.65;7.50;;;;;;;;;;5070022;28;20028;-67
2021/12/20 00:26:05;;;;;;;27.05;8.90;;;;;;;;;;5053443;28;20752;-69
2021/12/20 00:28:31;;;;;;;25.00;8.18;;;;;;;;;;5075339;28;20028;-68
2021/12/20 00:30:57;;;;;;;20.30;8.05;;;;;;;;;;5090746;28;20027;-68
2021/12/20 00:33:23;;;;;;;23.35;8.38;;;;;;;;;;5090196;28;20476;-68
2021/12/20 00:35:49;;;;;;;25.67;8.48;;;;;;;;;;5090888;28;20026;-68
2021/12/20 00:41:00;;;;;;;22.55;9.00;;;;;;;;;;5095369;23;20106;-67
2021/12/20 00:43:26;;;;;;;24.00;8.73;;;;;;;;;;5090570;28;20032;-67
2021/12/20 00:45:52;;;;;;;36.63;9.80;;;;;;;;;;5092651;28;20027;-67
2021/12/20 00:48:18;;;;;;;27.05;8.68;;;;;;;;;;5091049;28;20016;-68
2021/12/20 00:50:44;;;;;;;23.27;8.15;;;;;;;;;;5090673;28;20365;-67
2021/12/20 00:53:11;;;;;;;27.25;8.65;;;;;;;;;;5072106;28;20055;-66
2021/12/20 00:55:37;;;;;;;23.88;8.00;;;;;;;;;;5071899;28;20100;-67
2021/12/20 00:58:03;;;;;;;47.05;10.68;;;;;;;;;;5072816;28;20024;-69
2021/12/20 01:00:31;;;;;;;28.40;8.77;;;;;;;;;;5072655;28;20028;-67
2021/12/20 01:02:58;;;;;;;27.23;8.15;;;;;;;;;;5071920;28;20020;-67
2021/12/20 01:05:24;;;;;;;27.23;8.52;;;;;;;;;;5073958;28;20036;-67
2021/12/20 01:07:52;;;;;;;29.02;8.20;;;;;;;;;;5092284;28;20369;-67
2021/12/20 01:10:18;;;;;;;26.33;9.17;;;;;;;;;;5092212;28;20558;-67
2021/12/20 01:12:48;;;;;;;18.77;7.40;;;;;;;;;;5091289;28;20106;-68
2021/12/20 01:15:18;;;;;;;26.65;8.77;;;;;;;;;;5092165;28;20650;-68
2021/12/20 01:17:44;;;;;;;21.65;8.18;;;;;;;;;;5092218;28;20031;-67
2021/12/20 01:20:11;;;;;;;22.15;7.47;;;;;;;;;;5091969;28;20048;-68
2021/12/20 01:22:37;;;;;;;24.92;9.18;;;;;;;;;;5091660;28;20101;-68
2021/12/20 01:25:03;;;;;;;22.60;7.43;;;;;;;;;;5073916;28;20587;-66
2021/12/20 01:27:29;;;;;;;24.02;8.57;;;;;;;;;;5092294;28;20361;-66
2021/12/20 01:29:55;;;;;;;25.83;8.93;;;;;;;;;;5073875;28;20028;-66
2021/12/20 01:32:22;;;;;;;29.85;8.52;;;;;;;;;;5073211;28;20039;-66
2021/12/20 01:34:48;;;;;;;23.15;8.82;;;;;;;;;;5092004;28;20024;-66
2021/12/20 01:37:15;;;;;;;24.23;7.28;;;;;;;;;;5092044;28;20122;-66
2021/12/20 01:39:41;;;;;;;23.58;7.70;;;;;;;;;;5073734;28;20024;-67
2021/12/20 01:42:08;;;;;;;24.83;10.00;;;;;;;;;;5090972;28;20039;-67
2021/12/20 01:44:36;;;;;;;27.40;8.20;;;;;;;;;;5091743;28;20020;-67
2021/12/20 01:47:02;;;;;;;23.70;8.18;;;;;;;;;;5092043;28;20031;-67
2021/12/20 01:49:32;;;;;;;23.08;8.93;;;;;;;;;;5092578;28;20379;-67
2021/12/20 01:54:24;;;;;;;27.27;8.18;;;;;;;;;;5091716;28;20110;-66
2021/12/20 01:56:50;;;;;;;19.23;8.15;;;;;;;;;;5091828;28;20028;-66
2021/12/20 01:59:16;;;;;;;26.75;9.23;;;;;;;;;;5091821;28;20024;-68
2021/12/20 02:01:44;;;;;;;23.50;9.05;;;;;;;;;;5091193;28;20445;-67
2021/12/20 02:04:11;;;;;;;23.30;8.30;;;;;;;;;;5075878;28;20055;-67
2021/12/20 02:06:45;;;;;;;21.38;7.55;;;;;;;;;;5095706;28;20043;-67
2021/12/20 02:09:14;;;;;;;19.50;8.95;;;;;;;;;;5077556;28;20106;-67
2021/12/20 02:11:40;;;;;;;;;;;;;;;;;;5095118;28;20024;-66
2021/12/20 02:14:07;;;;;;;23.38;8.10;;;;;;;;;;5095400;28;20002;-67
2021/12/20 02:16:33;;;;;;;28.02;8.13;;;;;;;;;;5095573;28;20051;-67
2021/12/20 02:19:03;;;;;;;25.38;8.57;;;;;;;;;;5077154;28;20035;-66
2021/12/20 02:21:29;;;;;;;28.63;8.38;;;;;;;;;;5076732;28;20024;-65
2021/12/20 02:23:55;;;;;;;29.35;9.48;;;;;;;;;;5094963;28;20387;-66
2021/12/20 02:26:25;;;;;;;26.63;9.20;;;;;;;;;;5077013;28;20107;-66
2021/12/20 02:28:53;;;;;;;23.25;8.52;;;;;;;;;;5095434;28;20016;-65
2021/12/20 02:39:26;;;;;;;21.80;8.63;;;;;;;;;;5095308;28;20441;-66
2021/12/20 02:41:52;;;;;;;25.55;7.90;;;;;;;;;;5094311;28;20455;-66
2021/12/20 02:44:20;;;;;;;21.90;8.15;;;;;;;;;;5094854;28;20050;-65
2021/12/20 02:47:02;;;;;;;25.63;8.85;;;;;;;;;;5095060;28;20020;-66
2021/12/20 02:49:28;;;;;;;23.67;9.60;;;;;;;;;;5094865;28;20103;-67
2021/12/20 02:51:58;;;;;;;24.98;8.77;;;;;;;;;;5093897;28;20829;-67
2021/12/20 02:54:24;;;;;;;23.33;8.43;;;;;;;;;;5094771;28;20564;-66
2021/12/20 02:56:50;;;;;;;26.27;8.50;;;;;;;;;;5076358;28;20063;-66
2021/12/20 02:59:17;;;;;;;26.20;9.80;;;;;;;;;;5076472;28;20030;-67
2021/12/20 03:01:45;;;;;;;23.65;8.45;;;;;;;;;;5075729;28;20036;-66
2021/12/20 03:04:11;;;;;;;26.38;9.20;;;;;;;;;;5076580;28;20043;-67
2021/12/20 03:06:39;;;;;;;27.67;7.72;;;;;;;;;;5094357;28;20020;-66
2021/12/20 03:09:08;;;;;;;22.52;8.10;;;;;;;;;;5094484;28;20084;-66
2021/12/20 03:11:35;;;;;;;30.10;9.75;;;;;;;;;;5075702;28;20028;-63
2021/12/20 03:14:13;;;;;;;28.40;10.47;;;;;;;;;;5094207;28;20492;-66
2021/12/20 03:16:39;;;;;;;31.75;9.48;;;;;;;;;;5094367;28;20340;-66
2021/12/20 03:19:05;;;;;;;29.17;9.80;;;;;;;;;;5076049;28;20020;-66
2021/12/20 03:21:31;;;;;;;36.75;9.48;;;;;;;;;;5075633;28;20476;-65
2021/12/20 03:23:57;;;;;;;29.98;10.07;;;;;;;;;;5093332;28;20103;-66
2021/12/20 03:26:23;;;;;;;32.80;11.18;;;;;;;;;;5076029;28;20065;-67
2021/12/20 03:28:51;;;;;;;32.67;10.38;;;;;;;;;;5094077;28;20369;-66
2021/12/20 03:31:17;;;;;;;30.15;9.75;;;;;;;;;;5093900;28;20020;-66
2021/12/20 03:33:43;;;;;;;33.70;10.15;;;;;;;;;;5075220;28;20449;-67
2021/12/20 03:36:09;;;;;;;28.05;8.82;;;;;;;;;;5093712;28;20028;-65
2021/12/20 03:38:35;;;;;;;23.15;9.43;;;;;;;;;;5093800;28;20016;-67
2021/12/20 03:41:01;;;;;;;31.25;10.60;;;;;;;;;;5093594;28;20028;-67
2021/12/20 03:43:31;;;;;;;26.67;10.32;;;;;;;;;;5074770;28;20055;-66
2021/12/20 03:46:00;;;;;;;33.67;11.43;;;;;;;;;;5093904;28;20437;-66
2021/12/20 03:48:27;;;;;;;32.70;9.90;;;;;;;;;;5093769;28;20055;-66
2021/12/20 03:50:53;;;;;;;37.88;10.88;;;;;;;;;;5093399;28;20098;-66
2021/12/20 03:53:19;;;;;;;25.25;9.68;;;;;;;;;;5074623;28;20088;-66
2021/12/20 03:55:45;;;;;;;30.42;10.15;;;;;;;;;;5075413;28;20024;-66
2021/12/20 03:58:11;;;;;;;25.80;9.00;;;;;;;;;;5075751;28;20043;-66
2021/12/20 04:00:37;;;;;;;23.95;8.95;;;;;;;;;;5093602;28;20031;-66
2021/12/20 04:03:09;;;;;;;25.50;9.20;;;;;;;;;;5092538;28;20024;-67
2021/12/20 04:05:35;;;;;;;34.45;9.98;;;;;;;;;;5075073;28;20115;-66
2021/12/20 04:08:01;;;;;;;23.73;9.65;;;;;;;;;;5075304;28;20448;-67
2021/12/20 04:10:27;;;;;;;23.90;9.23;;;;;;;;;;5075027;28;20151;-66
2021/12/20 04:12:53;;;;;;;35.47;10.32;;;;;;;;;;5092506;28;20077;-65
2021/12/20 04:15:19;;;;;;;30.77;9.70;;;;;;;;;;5075110;28;20483;-66
2021/12/20 04:17:45;;;;;;;31.00;9.75;;;;;;;;;;5092960;28;20024;-66
2021/12/20 04:20:11;;;;;;;28.90;9.48;;;;;;;;;;5093023;28;20557;-65
2021/12/20 04:22:37;;;;;;;36.95;12.13;;;;;;;;;;5073945;28;20135;-66
2021/12/20 04:25:03;;;;;;;30.25;9.20;;;;;;;;;;5092740;28;20106;-64
2021/12/20 04:27:29;;;;;;;37.55;11.98;;;;;;;;;;5092233;28;20102;-66
2021/12/20 04:29:55;;;;;;;26.38;9.80;;;;;;;;;;5092736;28;20055;-67
2021/12/20 04:32:22;;;;;;;111.15;56.97;;;;;;;;;;5091980;28;20383;-66
2021/12/20 04:34:48;;;;;;;40.20;13.25;;;;;;;;;;5074762;28;20407;-66
2021/12/20 04:37:14;;;;;;;40.42;20.33;;;;;;;;;;5074661;28;20391;-66
2021/12/20 04:39:40;;;;;;;31.60;11.35;;;;;;;;;;5074498;28;20042;-67
2021/12/20 04:42:11;;;;;;;31.33;10.00;;;;;;;;;;5091635;28;20075;-66
2021/12/20 04:44:37;;;;;;;26.88;9.73;;;;;;;;;;5074566;28;20089;-66
2021/12/20 04:47:03;;;;;;;27.02;9.98;;;;;;;;;;5074533;28;20020;-69
2021/12/20 04:49:29;;;;;;;28.30;8.95;;;;;;;;;;5074352;28;20027;-66
2021/12/20 04:51:55;;;;;;;34.63;11.70;;;;;;;;;;5091783;28;20016;-66
2021/12/20 04:54:22;;;;;;;33.60;10.70;;;;;;;;;;5092601;28;20024;-65
2021/12/20 04:56:48;;;;;;;32.92;12.02;;;;;;;;;;5074435;28;20464;-65
2021/12/20 04:59:14;;;;;;;30.92;11.02;;;;;;;;;;5074615;28;20404;-67
2021/12/20 05:01:40;;;;;;;30.88;10.05;;;;;;;;;;5091827;28;20031;-66
2021/12/20 05:04:06;;;;;;;31.40;10.20;;;;;;;;;;5074161;28;20031;-66
2021/12/20 05:06:33;;;;;;;24.27;9.88;;;;;;;;;;5074228;28;20058;-66
2021/12/20 05:09:00;;;;;;;33.33;11.20;;;;;;;;;;5092149;28;20027;-65
2021/12/20 05:11:29;;;;;;;29.02;11.02;;;;;;;;;;5092212;28;20027;-65
2021/12/20 05:13:55;;;;;;;33.97;11.35;;;;;;;;;;5073547;28;20024;-66
2021/12/20 05:16:21;;;;;;;31.92;12.45;;;;;;;;;;5092264;28;20026;-66
2021/12/20 05:18:47;;;;;;;31.48;10.18;;;;;;;;;;5092050;28;20077;-66
2021/12/20 05:21:14;;;;;;;30.88;11.60;;;;;;;;;;5074047;28;20028;-68
2021/12/20 05:23:40;;;;;;;31.40;11.27;;;;;;;;;;5091391;28;20433;-65
2021/12/20 05:26:06;;;;;;;40.30;10.30;;;;;;;;;;5074048;28;20450;-67
2021/12/20 05:28:32;;;;;;;35.05;12.27;;;;;;;;;;5092018;28;20020;-67
2021/12/20 05:30:58;;;;;;;32.35;11.60;;;;;;;;;;5091881;28;20021;-67
2021/12/20 05:33:24;;;;;;;27.02;11.43;;;;;;;;;;5072884;28;20020;-67
2021/12/20 05:35:51;;;;;;;29.73;11.95;;;;;;;;;;5091964;28;20031;-64
2021/12/20 05:38:17;;;;;;;27.60;11.07;;;;;;;;;;5092579;28;20028;-66
2021/12/20 05:40:43;;;;;;;32.13;11.80;;;;;;;;;;5077463;28;20480;-66
2021/12/20 05:43:09;;;;;;;30.35;11.40;;;;;;;;;;5095287;28;20448;-65
2021/12/20 05:45:35;;;;;;;28.90;11.60;;;;;;;;;;5095689;28;20025;-66
2021/12/20 05:48:02;;;;;;;36.17;12.32;;;;;;;;;;5077722;28;20052;-66
2021/12/20 05:50:28;;;;;;;38.33;11.35;;;;;;;;;;5077477;28;20024;-66
2021/12/20 05:52:54;;;;;;;29.10;12.00;;;;;;;;;;5094907;28;20106;-67
2021/12/20 05:55:20;;;;;;;29.77;11.43;;;;;;;;;;5095497;28;20369;-66
2021/12/20 05:57:46;;;;;;;31.48;12.45;;;;;;;;;;5095579;28;20101;-67
2021/12/20 06:00:15;;;;;;;34.63;11.73;;;;;;;;;;5077455;28;20032;-66
2021/12/20 06:02:42;;;;;;;28.52;12.20;;;;;;;;;;5094528;28;20028;-67
2021/12/20 06:05:08;;;;;;;29.33;13.15;;;;;;;;;;5077310;28;20028;-67
2021/12/20 06:07:38;;;;;;;36.55;11.02;;;;;;;;;;5095529;28;20024;-66
2021/12/20 06:10:05;;;;;;;36.33;14.00;;;;;;;;;;5095374;28;20038;-66
2021/12/20 06:12:31;;;;;;;26.75;12.70;;;;;;;;;;5076179;28;20031;-67
2021/12/20 06:14:57;;;;;;;35.72;14.05;;;;;;;;;;5077002;28;20028;-66
2021/12/20 06:17:23;;;;;;;41.63;14.38;;;;;;;;;;5076844;28;20017;-66
2021/12/20 06:19:49;;;;;;;33.40;11.60;;;;;;;;;;5076755;28;20081;-66
2021/12/20 06:22:15;;;;;;;32.05;11.65;;;;;;;;;;5075901;28;20055;-66
2021/12/20 06:24:41;;;;;;;29.40;13.50;;;;;;;;;;5076699;28;20055;-67
2021/12/20 06:27:07;;;;;;;36.30;12.52;;;;;;;;;;5094957;28;20028;-68
2021/12/20 06:29:33;;;;;;;31.55;12.57;;;;;;;;;;5094583;28;20023;-67
2021/12/20 06:32:00;;;;;;;29.63;12.30;;;;;;;;;;5093849;28;20028;-65
2021/12/20 06:34:26;;;;;;;31.73;11.75;;;;;;;;;;5076756;28;20509;-65
2021/12/20 06:36:52;;;;;;;36.78;11.57;;;;;;;;;;5094794;28;20020;-66
2021/12/20 06:39:18;;;;;;;31.23;12.02;;;;;;;;;;5076298;28;20123;-67
2021/12/20 06:41:44;;;;;;;33.78;11.55;;;;;;;;;;5081036;23;20045;-68
2021/12/20 06:44:13;;;;;;;30.60;12.02;;;;;;;;;;5054627;28;20091;-69
2021/12/20 06:46:40;;;;;;;36.92;14.35;;;;;;;;;;5054965;28;20017;-67
2021/12/20 06:49:09;;;;;;;42.03;12.40;;;;;;;;;;5053154;28;20028;-68
2021/12/20 06:51:38;;;;;;;25.88;10.73;;;;;;;;;;5054039;28;20028;-67
2021/12/20 06:54:04;;;;;;;30.52;11.52;;;;;;;;;;5054766;28;20021;-69
2021/12/20 06:56:30;;;;;;;42.25;13.88;;;;;;;;;;5053256;28;20028;-68
2021/12/20 06:58:56;;;;;;;33.25;11.05;;;;;;;;;;5053702;28;20492;-69
2021/12/20 07:01:22;;;;;;;34.40;12.52;;;;;;;;;;5052821;28;20131;-68
2021/12/20 07:03:48;;;;;;;29.05;13.63;;;;;;;;;;5052536;28;20020;-68
2021/12/20 07:06:15;;;;;;;29.55;11.25;;;;;;;;;;5055394;28;20025;-68
2021/12/20 07:08:41;;;;;;;29.70;13.00;;;;;;;;;;5049409;28;20021;-69
2021/12/20 07:11:08;;;;;;;34.30;11.13;;;;;;;;;;5055313;28;20111;-70
2021/12/20 07:13:34;;;;;;;28.83;11.38;;;;;;;;;;5048711;28;20029;-69
2021/12/20 07:16:00;;;;;;;31.70;12.13;;;;;;;;;;5054423;28;20424;-69
2021/12/20 07:18:29;;;;;;;36.83;13.90;;;;;;;;;;5038811;28;20032;-69
2021/12/20 07:20:55;;;;;;;32.67;14.25;;;;;;;;;;5039884;28;20025;-68
2021/12/20 07:23:22;;;;;;;30.60;11.63;;;;;;;;;;5051347;28;20029;-69
2021/12/20 07:25:48;;;;;;;38.20;12.95;;;;;;;;;;5053207;28;20025;-69
2021/12/20 07:28:14;;;;;;;32.35;13.80;;;;;;;;;;5044391;28;20448;-68
2021/12/20 07:30:40;;;;;;;28.05;13.15;;;;;;;;;;5032959;28;20116;-67
2021/12/20 07:33:08;;;;;;;28.48;11.98;;;;;;;;;;5033439;28;20026;-68
2021/12/20 07:35:34;;;;;;;33.13;11.88;;;;;;;;;;5034546;28;20430;-68
2021/12/20 07:38:03;;;;;;;44.33;13.90;;;;;;;;;;5033261;28;20033;-69
2021/12/20 07:40:29;;;;;;;25.95;11.75;;;;;;;;;;5032782;28;20512;-68
2021/12/20 07:42:55;;;;;;;35.35;12.57;;;;;;;;;;5039602;28;20424;-68
2021/12/20 07:45:21;;;;;;;24.42;12.05;;;;;;;;;;5051889;28;20025;-69
2021/12/20 07:47:50;;;;;;;31.42;12.55;;;;;;;;;;5054083;28;20025;-69
2021/12/20 07:50:17;;;;;;;29.60;13.32;;;;;;;;;;5053441;28;20017;-67
2021/12/20 07:52:43;;;;;;;28.88;12.82;;;;;;;;;;5052540;28;20048;-68
2021/12/20 07:55:10;;;;;;;34.60;13.20;;;;;;;;;;5051751;28;20404;-68
2021/12/20 07:57:37;;;;;;;36.55;14.23;;;;;;;;;;5051791;28;20074;-66
2021/12/20 08:00:04;;;;;;;35.85;13.50;;;;;;;;;;5043454;28;20029;-70
2021/12/20 08:02:30;;;;;;;45.08;15.63;;;;;;;;;;5051855;28;20488;-69
2021/12/20 08:04:56;;;;;;;36.90;14.73;;;;;;;;;;5052184;28;20064;-69
2021/12/20 08:07:22;;;;;;;34.90;14.05;;;;;;;;;;5052134;28;20082;-70
2021/12/20 08:09:49;;;;;;;33.80;14.10;;;;;;;;;;5044202;28;20028;-66
2021/12/20 08:12:15;;;;;;;38.10;15.35;;;;;;;;;;5042248;28;20021;-68
2021/12/20 08:14:41;;;;;;;30.40;15.35;;;;;;;;;;5053078;28;20116;-69
2021/12/20 08:17:07;;;;;;;33.92;14.07;;;;;;;;;;5051576;28;20025;-72
2021/12/20 08:19:33;;;;;;;41.42;15.57;;;;;;;;;;5053235;28;20036;-69
2021/12/20 08:21:59;;;;;;;29.85;14.65;;;;;;;;;;5052483;28;20036;-68
2021/12/20 08:24:25;;;;;;;29.90;13.25;;;;;;;;;;5039439;28;20036;-69
2021/12/20 08:26:51;;;;;;;29.00;13.73;;;;;;;;;;5033072;28;20060;-68
2021/12/20 08:29:17;;;;;;;34.83;14.07;;;;;;;;;;5032994;28;20061;-69
2021/12/20 08:31:43;;;;;;;38.83;14.30;;;;;;;;;;5031784;28;20022;-68
2021/12/20 08:34:09;;;;;;;26.30;15.77;;;;;;;;;;5031397;28;20029;-68
2021/12/20 08:36:35;;;;;;;33.30;15.73;;;;;;;;;;5031268;28;20025;-68
2021/12/20 08:39:01;;;;;;;38.22;15.23;;;;;;;;;;5033462;28;20036;-69
2021/12/20 08:41:27;;;;;;;39.38;15.10;;;;;;;;;;5033269;28;20051;-71
2021/12/20 08:43:53;;;;;;;40.88;16.35;;;;;;;;;;5031846;28;20033;-71
2021/12/20 08:46:19;;;;;;;38.08;14.82;;;;;;;;;;5032873;28;20092;-73
2021/12/20 08:48:46;;;;;;;37.30;14.52;;;;;;;;;;5032196;28;20021;-73
2021/12/20 08:51:12;;;;;;;40.72;17.70;;;;;;;;;;5031923;28;20428;-71
2021/12/20 08:53:40;;;;;;;36.33;14.40;;;;;;;;;;5031331;28;20025;-71
2021/12/20 08:56:06;;;;;;;37.80;15.02;;;;;;;;;;5033297;28;20018;-71
2021/12/20 08:58:32;;;;;;;40.55;14.70;;;;;;;;;;5031736;28;20120;-72
2021/12/20 09:00:59;;;;;;;33.97;14.05;;;;;;;;;;5033179;28;20022;-72
2021/12/20 09:03:25;;;;;;;33.83;14.63;;;;;;;;;;5032540;28;20045;-71
2021/12/20 09:05:52;;;;;;;36.38;14.05;;;;;;;;;;5031886;28;20033;-70
2021/12/20 09:08:19;;;;;;;34.40;15.05;;;;;;;;;;5031802;28;20496;-69
2021/12/20 09:10:45;;;;;;;34.17;13.48;;;;;;;;;;5047222;28;20017;-69
2021/12/20 09:13:11;;;;;;;31.90;13.35;;;;;;;;;;5050680;28;20082;-69
2021/12/20 09:15:38;;;;;;;33.50;14.27;;;;;;;;;;5045321;28;20151;-69
2021/12/20 09:18:05;;;;;;;39.60;16.05;;;;;;;;;;5031024;28;20030;-67
2021/12/20 09:20:31;;;;;;;40.95;16.20;;;;;;;;;;5032240;28;20036;-67
2021/12/20 09:23:04;;;;;;;34.50;15.40;;;;;;;;;;5030138;28;20036;-67
2021/12/20 09:25:31;;;;;;;37.88;16.25;;;;;;;;;;5030874;28;20393;-67
2021/12/20 09:27:58;;;;;;;40.25;16.23;;;;;;;;;;5029287;28;20045;-67
2021/12/20 09:30:26;;;;;;;44.50;17.17;;;;;;;;;;5030784;28;20087;-67
2021/12/20 09:32:52;;;;;;;39.28;15.98;;;;;;;;;;5031155;28;20029;-67
2021/12/20 09:35:19;;;;;;;36.58;15.23;;;;;;;;;;5030642;28;20053;-67
2021/12/20 09:37:49;;;;;;;33.65;15.25;;;;;;;;;;5030835;28;20026;-68
2021/12/20 09:40:16;;;;;;;37.45;14.32;;;;;;;;;;5030573;28;20034;-67
2021/12/20 09:42:53;;;;;;;34.17;15.40;;;;;;;;;;5029760;28;20397;-67
2021/12/20 09:45:22;;;;;;;34.90;14.13;;;;;;;;;;5031692;28;20064;-67
2021/12/20 09:47:49;;;;;;;39.78;14.13;;;;;;;;;;5031937;28;20093;-67
2021/12/20 09:50:15;;;;;;;38.92;14.80;;;;;;;;;;5031789;28;20032;-67
2021/12/20 09:52:42;;;;;;;37.47;15.48;;;;;;;;;;5029541;28;20029;-67
2021/12/20 09:55:08;;;;;;;38.10;13.95;;;;;;;;;;5030420;28;20037;-67
2021/12/20 09:57:36;;;;;;;34.97;14.43;;;;;;;;;;5031632;28;20112;-67
2021/12/20 10:00:04;;;;;;;35.88;13.80;;;;;;;;;;5030542;28;20520;-66
2021/12/20 10:02:30;;;;;;;34.58;14.27;;;;;;;;;;5029562;28;20037;-66
2021/12/20 10:04:56;;;;;;;35.60;13.93;;;;;;;;;;5030164;28;20025;-65
2021/12/20 10:07:25;;;;;;;31.02;13.77;;;;;;;;;;5030621;28;20090;-66
2021/12/20 10:09:50;;;;;;;;;;;;;;;;;;5038431;28;20416;-66
2021/12/20 10:12:21;;;;;;;33.08;14.82;;;;;;;;;;5049111;28;19930;-66
2021/12/20 10:14:51;;;;;;;37.45;17.92;;;;;;;;;;5050604;28;20021;-66
2021/12/20 10:17:17;;;;;;;36.97;14.50;;;;;;;;;;5049994;28;20398;-66
2021/12/20 10:19:43;;;;;;;26.70;14.00;;;;;;;;;;5051362;28;20039;-67
2021/12/20 10:22:30;;;;;;;38.63;15.02;;;;;;;;;;5049408;28;20119;-67
2021/12/20 10:25:02;;;;;;;29.63;13.75;;;;;;;;;;5052913;28;20056;-66
2021/12/20 10:27:28;;;;;;;37.13;15.50;;;;;;;;;;5053420;28;20037;-66
2021/12/20 10:29:54;;;;;;;33.53;13.73;;;;;;;;;;5053627;28;20098;-67
2021/12/20 10:32:43;;;;;;;33.63;13.30;;;;;;;;;;5052650;28;20117;-66
2021/12/20 10:35:27;;;;;;;34.30;13.73;;;;;;;;;;5053295;28;20021;-67
2021/12/20 10:37:54;;;;;;;32.42;14.18;;;;;;;;;;5053655;28;20060;-66
2021/12/20 10:40:20;;;;;;;30.25;14.38;;;;;;;;;;5053428;28;20477;-67
2021/12/20 10:42:46;;;;;;;30.55;13.02;;;;;;;;;;5052156;28;20120;-66
2021/12/20 10:45:14;;;;;;;27.42;12.77;;;;;;;;;;5054466;28;20017;-67
2021/12/20 10:47:43;;;;;;;26.60;12.13;;;;;;;;;;5053120;28;20527;-67
2021/12/20 10:50:24;;;;;;;26.50;11.52;;;;;;;;;;5054119;28;20536;-66
2021/12/20 10:52:50;;;;;;;27.63;13.07;;;;;;;;;;5052164;28;20083;-67
2021/12/20 10:55:35;;;;;;;27.92;14.23;;;9.90;99.90;;;;;;5054527;28;20053;-68
2021/12/20 10:58:29;;;;;;;25.40;13.45;;;8.70;99.90;;;;;;5054281;28;20158;-67
2021/12/20 11:01:14;;;;;;;31.17;14.90;;;9.70;99.90;;;;;;5052190;28;20074;-67
2021/12/20 11:03:41;;;;;;;24.63;13.68;;;10.40;99.90;;;;;;5053235;28;20017;-68
2021/12/20 11:11:27;;;;;;;31.35;15.00;;;10.00;99.90;;;;;;5033527;28;20036;-68
2021/12/20 11:13:53;;;;;;;24.70;14.23;;;10.00;99.90;;;;;;5031643;28;20029;-68
2021/12/20 11:16:27;;;;;;;29.15;14.18;;;9.80;99.90;;;;;;5033613;28;20026;-68
2021/12/20 11:19:19;;;;;;;28.88;15.77;;;9.90;99.90;;;;;;5032114;28;20068;-68
2021/12/20 11:21:48;;;;;;;26.10;14.45;;;10.20;99.90;;;;;;5032660;28;20018;-69
2021/12/20 11:24:17;;;;;;;25.85;14.00;;;10.80;99.90;;;;;;5038356;28;20123;-68
2021/12/20 11:26:43;;;;;;;28.42;15.85;;;10.40;99.90;;;;;;5052399;28;20027;-68
2021/12/20 11:29:10;;;;;;;27.75;15.63;;;11.50;99.90;;;;;;5053934;28;20028;-68
2021/12/20 11:31:37;;;;;;;31.05;15.43;;;11.80;99.70;;;;;;5052098;28;20055;-68
2021/12/20 11:34:03;;;;;;;26.75;15.13;;;13.20;99.40;;;;;;5054041;28;20020;-69
2021/12/20 11:36:29;;;;;;;26.85;15.65;;;14.70;97.50;;;;;;5050503;28;20024;-68
2021/12/20 11:38:58;;;;;;;29.10;17.13;;;16.00;93.80;;;;;;5053578;28;20174;-69
2021/12/20 11:41:28;;;;;;;27.48;15.60;;;15.10;90.80;;;;;;5051850;28;20025;-69
2021/12/20 11:43:58;;;;;;;24.95;15.23;;;14.70;90.50;;;;;;5054203;28;20047;-67
2021/12/20 11:46:37;;;;;;;27.58;15.85;;;15.00;92.10;;;;;;5054422;28;20017;-68
2021/12/20 11:49:03;;;;;;;26.48;15.18;;;16.10;91.10;;;;;;5052459;28;20043;-68
2021/12/20 11:51:48;;;;;;;24.23;15.73;;;17.80;86.20;;;;;;5053109;28;20020;-67
2021/12/20 11:54:36;;;;;;;25.88;15.70;;;18.20;80.30;;;;;;5053580;28;20024;-68
2021/12/20 11:57:02;;;;;;;23.70;15.63;;;18.60;76.30;;;;;;5052158;28;20651;-69
2021/12/20 11:59:48;;;;;;;26.70;15.57;;;18.00;73.00;;;;;;5052472;28;20059;-68
2021/12/20 12:02:24;;;;;;;28.40;15.10;;;17.80;76.10;;;;;;5051821;28;20021;-68
2021/12/20 12:04:59;;;;;;;30.00;14.98;;;16.50;75.60;;;;;;5052260;28;20056;-68
2021/12/20 12:07:29;;;;;;;27.63;15.75;;;16.80;77.90;;;;;;5053685;28;20028;-69
2021/12/20 12:09:59;;;;;;;29.40;14.77;;;16.30;76.50;;;;;;5052772;28;20017;-69
2021/12/20 12:12:29;;;;;;;22.85;13.50;;;16.40;75.10;;;;;;5051275;28;20021;-69
2021/12/20 12:15:04;;;;;;;24.05;14.07;;;16.30;75.60;;;;;;5053630;28;20108;-70
2021/12/20 12:17:59;;;;;;;27.27;14.13;;;17.20;74.60;;;;;;5052377;28;20126;-69
2021/12/20 12:20:53;;;;;;;22.98;14.15;;;16.60;71.50;;;;;;5052375;28;20021;-69
2021/12/20 12:23:26;;;;;;;22.23;13.90;;;17.00;72.30;;;;;;5050493;28;20029;-70
2021/12/20 12:26:02;;;;;;;25.48;13.65;;;17.40;70.50;;;;;;5052492;28;20126;-70
2021/12/20 12:28:52;;;;;;;24.77;13.68;;;17.40;70.90;;;;;;5051894;28;20017;-69
2021/12/20 12:31:19;;;;;;;22.02;13.32;;;17.40;68.30;;;;;;5047228;28;20032;-69
2021/12/20 12:33:45;;;;;;;24.38;13.50;;;17.00;69.20;;;;;;5045445;28;20053;-70
2021/12/20 12:36:26;;;;;;;23.98;13.00;;;17.20;69.20;;;;;;5036196;28;20428;-71
2021/12/20 12:38:57;;;;;;;22.30;13.40;;;17.80;68.50;;;;;;5040429;28;20358;-70
2021/12/20 12:41:28;;;;;;;20.80;13.05;;;17.10;68.00;;;;;;5037890;28;20029;-70
2021/12/20 12:44:03;;;;;;;23.13;13.20;;;16.70;70.10;;;;;;5036974;28;20025;-70
2021/12/20 12:46:41;;;;;;;23.10;13.23;;;17.40;64.70;;;;;;5039021;28;20113;-69
2021/12/20 12:49:22;;;;;;;22.77;13.70;;;15.30;69.30;;;;;;5068017;23;20093;-68
2021/12/20 12:51:49;;;;;;;21.33;12.20;;;15.20;69.40;;;;;;5037085;28;20037;-68
2021/12/20 12:54:32;;;;;;;20.52;13.40;;;16.70;69.70;;;;;;5027637;28;20036;-68
2021/12/20 12:57:10;;;;;;;20.98;12.15;;;17.40;64.40;;;;;;5027164;28;20124;-69
2021/12/20 12:59:48;;;;;;;20.67;12.85;;;17.30;65.60;;;;;;5028432;28;20465;-70
2021/12/20 13:02:15;;;;;;;23.90;13.63;;;17.20;65.50;;;;;;5026807;28;20089;-71
2021/12/20 13:04:45;;;;;;;23.48;12.52;;;17.70;62.50;;;;;;5025245;28;20041;-69
2021/12/20 13:07:11;;;;;;;20.35;11.68;;;16.30;63.10;;;;;;5027028;28;20091;-70
2021/12/20 13:09:44;;;;;;;20.75;11.15;;;17.00;61.90;;;;;;5032586;28;20056;-68
2021/12/20 13:12:20;;;;;;;19.70;11.80;;;17.60;60.10;;;;;;5033514;28;20025;-69
2021/12/20 13:15:06;;;;;;;19.75;11.60;;;17.70;62.20;;;;;;5041101;28;20029;-69
2021/12/20 13:17:37;;;;;;;22.70;11.85;;;17.80;59.90;;;;;;5030088;28;20025;-69
2021/12/20 13:23:04;;;;;;;23.65;12.80;;;17.30;59.30;;;;;;5027448;28;20040;-68
2021/12/20 13:25:55;;;;;;;19.65;11.07;;;17.60;61.10;;;;;;5028330;28;20025;-68
2021/12/20 13:28:26;;;;;;;19.00;11.65;;;17.60;57.80;;;;;;5026564;28;20501;-69
2021/12/20 13:31:14;;;;;;;20.25;11.30;;;16.90;60.50;;;;;;5025765;28;20417;-70
2021/12/20 13:33:41;;;;;;;21.00;12.90;;;17.30;60.20;;;;;;5027430;28;20038;-71
2021/12/20 13:36:12;;;;;;;19.45;11.25;;;16.80;58.70;;;;;;5028918;28;20036;-70
2021/12/20 13:38:40;;;;;;;21.00;12.77;;;17.20;59.80;;;;;;5027634;28;20053;-70
2021/12/20 13:41:11;;;;;;;19.02;12.32;;;17.10;62.40;;;;;;5027229;28;20025;-68
2021/12/20 13:43:40;;;;;;;18.38;11.10;;;17.30;60.50;;;;;;5028875;28;20044;-71
2021/12/20 13:46:16;;;;;;;20.13;11.38;;;17.00;60.70;;;;;;5030877;28;20494;-69
2021/12/20 13:48:54;;;;;;;19.05;11.85;;;17.10;59.50;;;;;;5028708;28;20039;-70
2021/12/20 13:51:29;;;;;;;19.75;11.50;;;16.90;60.40;;;;;;5029853;28;20033;-69
2021/12/20 13:53:54;;;;;;;18.08;11.05;;;16.60;60.90;;;;;;5028033;28;20501;-70
2021/12/20 13:56:20;;;;;;;21.55;12.30;;;17.00;60.70;;;;;;5031215;28;20033;-68
2021/12/20 13:58:48;;;;;;;17.67;11.93;;;17.50;61.30;;;;;;4698103;28;10000188;-69
2021/12/20 14:01:15;;;;;;;21.10;12.50;;;16.90;58.70;;;;;;5051561;28;20021;-69
2021/12/20 14:03:41;;;;;;;19.13;12.32;;;16.30;61.10;;;;;;5049871;28;20110;-69
2021/12/20 14:06:08;;;;;;;22.23;12.32;;;16.50;61.70;;;;;;5051666;28;20028;-71
2021/12/20 14:08:34;;;;;;;21.33;11.90;;;16.40;59.80;;;;;;5051588;28;20025;-70
2021/12/20 14:11:01;;;;;;;17.55;11.82;;;15.00;60.30;;;;;;5049219;28;20029;-70
2021/12/20 14:13:29;;;;;;;18.67;11.77;;;15.60;61.10;;;;;;5046915;28;20045;-70
2021/12/20 14:16:03;;;;;;;19.15;12.23;;;15.30;63.40;;;;;;5051348;28;20105;-67
2021/12/20 14:18:36;;;;;;;20.63;13.45;;;15.60;63.30;;;;;;5050630;28;20025;-69
2021/12/20 14:21:03;;;;;;;26.10;15.93;;;16.00;62.30;;;;;;5054934;28;20104;-70